sensor_id;sensor_type;location;lat;lon;timestamp;P1;durP1;ratioP1;P2;durP2;ratioP2
28070;SDS011;15383;48.408;9.968;2023-09-19T03:02:22;2.20;;;1.70;;
28070;SDS011;15383;48.408;9.968;2023-09-19T03:04:49;2.95;;;1.65;;
28070;SDS011;15383;48.408;9.968;2023-09-19T03:07:16;5.30;;;2.00;;
28070;SDS011;15383;48.408;9.968;2023-09-19T03:09:42;5.80;;;1.83;;
28070;SDS011;15383;48.408;9.968;2023-09-19T03:12:08;7.18;;;2.20;;
28070;SDS011;15383;48.408;9.968;2023-09-19T03:14:34;4.43;;;1.73;;
28070;SDS011;15383;48.408;9.968;2023-09-19T03:17:00;7.93;;;2.00;;
28070;SDS011;15383;48.408;9.968;2023-09-19T03:19:30;5.40;;;1.90;;
28070;SDS011;15383;48.408;9.968;2023-09-19T03:21:58;2.58;;;1.50;;
28070;SDS011;15383;48.408;9.968;2023-09-19T03:24:24;7.07;;;2.00;;
28070;SDS011;15383;48.408;9.968;2023-09-19T03:26:51;14.48;;;2.47;;
28070;SDS011;15383;48.408;9.968;2023-09-19T03:29:17;3.78;;;2.10;;
28070;SDS011;15383;48.408;9.968;2023-09-19T03:31:43;5.07;;;1.95;;
28070;SDS011;15383;48.408;9.968;2023-09-19T03:34:09;3.58;;;1.83;;
28070;SDS011;15383;48.408;9.968;2023-09-19T03:36:35;6.30;;;2.00;;
28070;SDS011;15383;48.408;9.968;2023-09-19T03:39:01;5.25;;;1.85;;
28070;SDS011;15383;48.408;9.968;2023-09-19T03:41:29;7.17;;;2.00;;
28070;SDS011;15383;48.408;9.968;2023-09-19T03:43:56;3.22;;;1.85;;
28070;SDS011;15383;48.408;9.968;2023-09-19T03:46:22;9.23;;;2.60;;
28070;SDS011;15383;48.408;9.968;2023-09-19T03:48:47;3.35;;;1.83;;
28070;SDS011;15383;48.408;9.968;2023-09-19T03:51:13;4.78;;;2.00;;
28070;SDS011;15383;48.408;9.968;2023-09-19T03:53:39;5.75;;;2.08;;
28070;SDS011;15383;48.408;9.968;2023-09-19T03:56:04;5.63;;;2.00;;
28070;SDS011;15383;48.408;9.968;2023-09-19T03:58:30;3.70;;;1.70;;
28070;SDS011;15383;48.408;9.968;2023-09-19T04:00:56;4.38;;;2.17;;
28070;SDS011;15383;48.408;9.968;2023-09-19T04:03:22;6.80;;;1.88;;
28070;SDS011;15383;48.408;9.968;2023-09-19T04:05:48;4.20;;;2.30;;
28070;SDS011;15383;48.408;9.968;2023-09-19T04:08:14;5.07;;;1.75;;
28070;SDS011;15383;48.408;9.968;2023-09-19T04:10:43;4.13;;;2.13;;
28070;SDS011;15383;48.408;9.968;2023-09-19T04:13:09;10.35;;;1.65;;
28070;SDS011;15383;48.408;9.968;2023-09-19T04:15:35;3.80;;;2.00;;
28070;SDS011;15383;48.408;9.968;2023-09-19T04:18:02;11.20;;;1.67;;
28070;SDS011;15383;48.408;9.968;2023-09-19T04:20:28;2.00;;;1.80;;
28070;SDS011;15383;48.408;9.968;2023-09-19T04:22:54;3.97;;;2.03;;
28070;SDS011;15383;48.408;9.968;2023-09-19T04:25:20;2.65;;;1.70;;
28070;SDS011;15383;48.408;9.968;2023-09-19T04:27:46;7.88;;;1.83;;
28070;SDS011;15383;48.408;9.968;2023-09-19T04:30:12;7.97;;;2.00;;
28070;SDS011;15383;48.408;9.968;2023-09-19T04:32:39;5.63;;;1.50;;
28070;SDS011;15383;48.408;9.968;2023-09-19T04:35:06;2.63;;;1.50;;
28070;SDS011;15383;48.408;9.968;2023-09-19T04:37:33;4.60;;;1.90;;
28070;SDS011;15383;48.408;9.968;2023-09-19T04:40:03;7.07;;;2.20;;
28070;SDS011;15383;48.408;9.968;2023-09-19T04:42:31;4.05;;;1.70;;
28070;SDS011;15383;48.408;9.968;2023-09-19T04:44:56;3.33;;;1.40;;
28070;SDS011;15383;48.408;9.968;2023-09-19T04:47:24;2.83;;;1.58;;
28070;SDS011;15383;48.408;9.968;2023-09-19T04:49:51;6.22;;;1.23;;
28070;SDS011;15383;48.408;9.968;2023-09-19T04:52:16;4.15;;;1.35;;
28070;SDS011;15383;48.408;9.968;2023-09-19T04:54:42;1.85;;;1.23;;
28070;SDS011;15383;48.408;9.968;2023-09-19T04:57:08;2.47;;;1.67;;
28070;SDS011;15383;48.408;9.968;2023-09-19T04:59:33;3.85;;;1.60;;
28070;SDS011;15383;48.408;9.968;2023-09-19T05:01:59;2.25;;;1.30;;
28070;SDS011;15383;48.408;9.968;2023-09-19T05:04:24;5.93;;;1.52;;
28070;SDS011;15383;48.408;9.968;2023-09-19T05:06:50;1.77;;;1.50;;
28070;SDS011;15383;48.408;9.968;2023-09-19T05:09:16;3.78;;;1.20;;
28070;SDS011;15383;48.408;9.968;2023-09-19T05:11:44;6.18;;;1.40;;
28070;SDS011;15383;48.408;9.968;2023-09-19T05:14:11;7.82;;;1.65;;
28070;SDS011;15383;48.408;9.968;2023-09-19T05:16:37;3.83;;;1.50;;
28070;SDS011;15383;48.408;9.968;2023-09-19T05:19:02;4.78;;;1.63;;
28070;SDS011;15383;48.408;9.968;2023-09-19T05:21:31;1.70;;;1.38;;
28070;SDS011;15383;48.408;9.968;2023-09-19T05:23:58;2.40;;;1.40;;
28070;SDS011;15383;48.408;9.968;2023-09-19T05:26:24;2.88;;;1.50;;
28070;SDS011;15383;48.408;9.968;2023-09-19T05:28:49;2.50;;;1.42;;
28070;SDS011;15383;48.408;9.968;2023-09-19T05:31:18;4.90;;;1.30;;
28070;SDS011;15383;48.408;9.968;2023-09-19T05:33:43;2.97;;;1.35;;
28070;SDS011;15383;48.408;9.968;2023-09-19T05:36:09;1.45;;;1.20;;
28070;SDS011;15383;48.408;9.968;2023-09-19T05:38:36;4.57;;;1.48;;
28070;SDS011;15383;48.408;9.968;2023-09-19T05:41:05;2.00;;;1.40;;
28070;SDS011;15383;48.408;9.968;2023-09-19T05:43:32;5.82;;;1.60;;
28070;SDS011;15383;48.408;9.968;2023-09-19T05:45:59;4.18;;;1.60;;
28070;SDS011;15383;48.408;9.968;2023-09-19T05:48:25;4.63;;;1.40;;
28070;SDS011;15383;48.408;9.968;2023-09-19T05:50:51;4.40;;;1.58;;
28070;SDS011;15383;48.408;9.968;2023-09-19T05:53:16;6.57;;;1.85;;
28070;SDS011;15383;48.408;9.968;2023-09-19T05:55:43;2.55;;;1.45;;
28070;SDS011;15383;48.408;9.968;2023-09-19T05:58:09;2.90;;;1.63;;
28070;SDS011;15383;48.408;9.968;2023-09-19T06:00:35;3.20;;;1.33;;
28070;SDS011;15383;48.408;9.968;2023-09-19T06:03:01;5.00;;;1.25;;
28070;SDS011;15383;48.408;9.968;2023-09-19T06:05:27;8.73;;;1.67;;
28070;SDS011;15383;48.408;9.968;2023-09-19T06:07:55;5.93;;;1.45;;
28070;SDS011;15383;48.408;9.968;2023-09-19T06:10:21;3.50;;;1.27;;
28070;SDS011;15383;48.408;9.968;2023-09-19T06:12:47;2.78;;;1.38;;
28070;SDS011;15383;48.408;9.968;2023-09-19T06:15:14;2.95;;;1.40;;
28070;SDS011;15383;48.408;9.968;2023-09-19T06:17:42;2.55;;;1.38;;
28070;SDS011;15383;48.408;9.968;2023-09-19T06:20:08;3.85;;;1.58;;
28070;SDS011;15383;48.408;9.968;2023-09-19T06:22:43;2.80;;;1.35;;
28070;SDS011;15383;48.408;9.968;2023-09-19T06:25:10;7.90;;;1.65;;
28070;SDS011;15383;48.408;9.968;2023-09-19T06:27:50;7.00;;;1.33;;
28070;SDS011;15383;48.408;9.968;2023-09-19T06:30:19;6.00;;;1.42;;
28070;SDS011;15383;48.408;9.968;2023-09-19T06:32:48;6.03;;;1.10;;
28070;SDS011;15383;48.408;9.968;2023-09-19T06:35:15;2.40;;;1.30;;
28070;SDS011;15383;48.408;9.968;2023-09-19T06:37:41;3.05;;;1.48;;
28070;SDS011;15383;48.408;9.968;2023-09-19T06:40:08;2.05;;;1.02;;
28070;SDS011;15383;48.408;9.968;2023-09-19T06:42:40;5.07;;;1.40;;
28070;SDS011;15383;48.408;9.968;2023-09-19T06:45:13;4.28;;;1.05;;
28070;SDS011;15383;48.408;9.968;2023-09-19T06:47:47;6.28;;;1.42;;
28070;SDS011;15383;48.408;9.968;2023-09-19T06:50:22;1.40;;;1.17;;
28070;SDS011;15383;48.408;9.968;2023-09-19T06:52:49;1.30;;;1.05;;
28070;SDS011;15383;48.408;9.968;2023-09-19T06:55:19;2.13;;;1.10;;
28070;SDS011;15383;48.408;9.968;2023-09-19T06:57:46;1.80;;;1.10;;
28070;SDS011;15383;48.408;9.968;2023-09-19T07:00:12;1.33;;;1.02;;
28070;SDS011;15383;48.408;9.968;2023-09-19T07:02:59;4.07;;;1.30;;
28070;SDS011;15383;48.408;9.968;2023-09-19T07:05:33;5.07;;;1.40;;
28070;SDS011;15383;48.408;9.968;2023-09-19T07:08:04;4.30;;;1.20;;
28070;SDS011;15383;48.408;9.968;2023-09-19T07:10:34;1.33;;;1.10;;
28070;SDS011;15383;48.408;9.968;2023-09-19T07:13:00;4.28;;;1.15;;
28070;SDS011;15383;48.408;9.968;2023-09-19T07:15:28;3.30;;;0.70;;
28070;SDS011;15383;48.408;9.968;2023-09-19T07:18:04;1.52;;;0.98;;
28070;SDS011;15383;48.408;9.968;2023-09-19T07:20:31;4.10;;;1.25;;
28070;SDS011;15383;48.408;9.968;2023-09-19T07:22:58;1.70;;;0.85;;
28070;SDS011;15383;48.408;9.968;2023-09-19T07:25:29;2.47;;;1.08;;
28070;SDS011;15383;48.408;9.968;2023-09-19T07:27:56;1.15;;;0.90;;
28070;SDS011;15383;48.408;9.968;2023-09-19T07:30:25;2.80;;;1.45;;
28070;SDS011;15383;48.408;9.968;2023-09-19T07:32:51;2.05;;;1.10;;
28070;SDS011;15383;48.408;9.968;2023-09-19T07:35:17;2.67;;;1.10;;
28070;SDS011;15383;48.408;9.968;2023-09-19T07:37:45;6.05;;;1.40;;
28070;SDS011;15383;48.408;9.968;2023-09-19T07:40:14;4.87;;;1.10;;
28070;SDS011;15383;48.408;9.968;2023-09-19T07:42:48;3.45;;;1.15;;
28070;SDS011;15383;48.408;9.968;2023-09-19T07:45:15;2.33;;;1.17;;
28070;SDS011;15383;48.408;9.968;2023-09-19T07:47:45;4.57;;;1.20;;
28070;SDS011;15383;48.408;9.968;2023-09-19T07:50:18;2.45;;;0.95;;
28070;SDS011;15383;48.408;9.968;2023-09-19T07:52:46;2.85;;;1.25;;
28070;SDS011;15383;48.408;9.968;2023-09-19T07:55:12;1.88;;;1.10;;
28070;SDS011;15383;48.408;9.968;2023-09-19T07:57:41;1.20;;;0.90;;
28070;SDS011;15383;48.408;9.968;2023-09-19T08:00:08;4.20;;;1.40;;
28070;SDS011;15383;48.408;9.968;2023-09-19T08:02:38;1.98;;;1.10;;
28070;SDS011;15383;48.408;9.968;2023-09-19T08:05:04;3.67;;;1.13;;
28070;SDS011;15383;48.408;9.968;2023-09-19T08:07:32;2.45;;;1.00;;
28070;SDS011;15383;48.408;9.968;2023-09-19T08:09:58;5.05;;;1.00;;
28070;SDS011;15383;48.408;9.968;2023-09-19T08:12:24;1.98;;;1.00;;
28070;SDS011;15383;48.408;9.968;2023-09-19T08:14:50;5.93;;;1.00;;
28070;SDS011;15383;48.408;9.968;2023-09-19T08:17:15;3.00;;;1.13;;
28070;SDS011;15383;48.408;9.968;2023-09-19T08:19:41;1.17;;;1.08;;
28070;SDS011;15383;48.408;9.968;2023-09-19T08:22:10;0.93;;;0.93;;
28070;SDS011;15383;48.408;9.968;2023-09-19T08:24:35;1.40;;;1.08;;
28070;SDS011;15383;48.408;9.968;2023-09-19T08:27:01;1.38;;;0.65;;
28070;SDS011;15383;48.408;9.968;2023-09-19T08:29:29;3.92;;;0.90;;
28070;SDS011;15383;48.408;9.968;2023-09-19T08:31:58;1.67;;;0.88;;
28070;SDS011;15383;48.408;9.968;2023-09-19T08:34:24;2.10;;;0.75;;
28070;SDS011;15383;48.408;9.968;2023-09-19T08:36:54;1.85;;;0.98;;
28070;SDS011;15383;48.408;9.968;2023-09-19T08:39:23;3.92;;;0.82;;
28070;SDS011;15383;48.408;9.968;2023-09-19T08:41:56;5.07;;;0.80;;
28070;SDS011;15383;48.408;9.968;2023-09-19T08:44:26;2.03;;;0.80;;
28070;SDS011;15383;48.408;9.968;2023-09-19T08:47:09;5.22;;;0.88;;
28070;SDS011;15383;48.408;9.968;2023-09-19T08:49:40;1.75;;;0.75;;
28070;SDS011;15383;48.408;9.968;2023-09-19T08:52:55;0.80;;;0.77;;
28070;SDS011;15383;48.408;9.968;2023-09-19T08:55:01;0.60;;;0.60;;
28070;SDS011;15383;48.408;9.968;2023-09-19T08:57:35;0.75;;;0.70;;
28070;SDS011;15383;48.408;9.968;2023-09-19T09:00:06;1.73;;;0.90;;
28070;SDS011;15383;48.408;9.968;2023-09-19T09:02:39;1.23;;;0.88;;
28070;SDS011;15383;48.408;9.968;2023-09-19T09:05:08;0.75;;;0.75;;
28070;SDS011;15383;48.408;9.968;2023-09-19T09:07:39;1.83;;;0.93;;
28070;SDS011;15383;48.408;9.968;2023-09-19T09:10:06;1.90;;;1.00;;
28070;SDS011;15383;48.408;9.968;2023-09-19T09:12:34;1.13;;;0.80;;
28070;SDS011;15383;48.408;9.968;2023-09-19T09:15:06;1.15;;;0.93;;
28070;SDS011;15383;48.408;9.968;2023-09-19T09:17:36;0.77;;;0.77;;
28070;SDS011;15383;48.408;9.968;2023-09-19T09:20:02;5.00;;;0.77;;
28070;SDS011;15383;48.408;9.968;2023-09-19T09:22:30;0.88;;;0.70;;
28070;SDS011;15383;48.408;9.968;2023-09-19T09:24:57;1.75;;;1.08;;
28070;SDS011;15383;48.408;9.968;2023-09-19T09:27:23;2.70;;;1.08;;
28070;SDS011;15383;48.408;9.968;2023-09-19T09:29:50;1.55;;;0.90;;
28070;SDS011;15383;48.408;9.968;2023-09-19T09:34:50;1.23;;;0.80;;
28070;SDS011;15383;48.408;9.968;2023-09-19T09:37:19;0.50;;;0.50;;
28070;SDS011;15383;48.408;9.968;2023-09-19T09:39:54;1.05;;;0.88;;
28070;SDS011;15383;48.408;9.968;2023-09-19T09:42:31;3.35;;;0.98;;
28070;SDS011;15383;48.408;9.968;2023-09-19T09:48:02;4.18;;;1.00;;
28070;SDS011;15383;48.408;9.968;2023-09-19T09:53:34;1.55;;;0.77;;
28070;SDS011;15383;48.408;9.968;2023-09-19T09:58:38;2.13;;;0.98;;
28070;SDS011;15383;48.408;9.968;2023-09-19T10:01:15;2.20;;;1.17;;
28070;SDS011;15383;48.408;9.968;2023-09-19T10:03:41;2.13;;;0.80;;
28070;SDS011;15383;48.408;9.968;2023-09-19T10:06:16;1.45;;;1.00;;
28070;SDS011;15383;48.408;9.968;2023-09-19T10:12:18;0.88;;;0.63;;
28070;SDS011;15383;48.408;9.968;2023-09-19T10:14:35;1.45;;;1.20;;
28070;SDS011;15383;48.408;9.968;2023-09-19T10:17:04;0.82;;;0.80;;
28070;SDS011;15383;48.408;9.968;2023-09-19T10:19:37;0.93;;;0.70;;
28070;SDS011;15383;48.408;9.968;2023-09-19T10:22:11;1.45;;;1.00;;
28070;SDS011;15383;48.408;9.968;2023-09-19T10:24:39;2.20;;;1.13;;
28070;SDS011;15383;48.408;9.968;2023-09-19T10:27:06;1.27;;;0.70;;
28070;SDS011;15383;48.408;9.968;2023-09-19T10:29:36;1.98;;;0.90;;
28070;SDS011;15383;48.408;9.968;2023-09-19T10:32:04;0.95;;;0.70;;
28070;SDS011;15383;48.408;9.968;2023-09-19T10:34:35;0.73;;;0.70;;
28070;SDS011;15383;48.408;9.968;2023-09-19T10:37:02;1.17;;;1.08;;
28070;SDS011;15383;48.408;9.968;2023-09-19T10:39:30;3.67;;;1.13;;
28070;SDS011;15383;48.408;9.968;2023-09-19T10:42:05;4.53;;;0.77;;
28070;SDS011;15383;48.408;9.968;2023-09-19T10:44:33;1.27;;;0.90;;
28070;SDS011;15383;48.408;9.968;2023-09-19T10:47:07;3.20;;;1.05;;
28070;SDS011;15383;48.408;9.968;2023-09-19T10:49:33;2.53;;;1.00;;
28070;SDS011;15383;48.408;9.968;2023-09-19T10:51:59;1.65;;;0.98;;
28070;SDS011;15383;48.408;9.968;2023-09-19T10:54:28;3.00;;;1.08;;
28070;SDS011;15383;48.408;9.968;2023-09-19T10:57:02;1.00;;;0.77;;
28070;SDS011;15383;48.408;9.968;2023-09-19T10:59:30;2.10;;;0.90;;
28070;SDS011;15383;48.408;9.968;2023-09-19T11:01:59;4.93;;;0.75;;
28070;SDS011;15383;48.408;9.968;2023-09-19T11:04:40;4.22;;;0.82;;
28070;SDS011;15383;48.408;9.968;2023-09-19T11:07:06;1.00;;;0.70;;
28070;SDS011;15383;48.408;9.968;2023-09-19T11:09:45;2.45;;;1.25;;
28070;SDS011;15383;48.408;9.968;2023-09-19T11:15:09;2.55;;;1.05;;
28070;SDS011;15383;48.408;9.968;2023-09-19T11:17:58;2.80;;;1.17;;
28070;SDS011;15383;48.408;9.968;2023-09-19T11:20:24;1.23;;;1.00;;
28070;SDS011;15383;48.408;9.968;2023-09-19T11:30:46;2.47;;;1.25;;
28070;SDS011;15383;48.408;9.968;2023-09-19T11:33:22;2.90;;;1.08;;
28070;SDS011;15383;48.408;9.968;2023-09-19T11:36:13;2.30;;;1.10;;
28070;SDS011;15383;48.408;9.968;2023-09-19T11:46:29;1.88;;;0.95;;
28070;SDS011;15383;48.408;9.968;2023-09-19T11:49:04;1.35;;;1.15;;
28070;SDS011;15383;48.408;9.968;2023-09-19T11:51:40;1.35;;;0.90;;
28070;SDS011;15383;48.408;9.968;2023-09-19T11:54:10;3.22;;;1.02;;
28070;SDS011;15383;48.408;9.968;2023-09-19T11:56:44;2.30;;;1.27;;
28070;SDS011;15383;48.408;9.968;2023-09-19T11:59:11;1.58;;;1.05;;
28070;SDS011;15383;48.408;9.968;2023-09-19T12:01:37;5.72;;;0.95;;
28070;SDS011;15383;48.408;9.968;2023-09-19T12:04:15;2.22;;;0.82;;
28070;SDS011;15383;48.408;9.968;2023-09-19T12:06:43;3.22;;;1.10;;
28070;SDS011;15383;48.408;9.968;2023-09-19T12:09:21;3.88;;;1.40;;
28070;SDS011;15383;48.408;9.968;2023-09-19T12:11:47;1.90;;;0.88;;
28070;SDS011;15383;48.408;9.968;2023-09-19T12:14:24;2.15;;;0.80;;
28070;SDS011;15383;48.408;9.968;2023-09-19T12:16:54;2.83;;;1.00;;
28070;SDS011;15383;48.408;9.968;2023-09-19T12:19:21;3.33;;;1.00;;
28070;SDS011;15383;48.408;9.968;2023-09-19T12:21:56;1.23;;;0.90;;
28070;SDS011;15383;48.408;9.968;2023-09-19T12:24:24;2.78;;;1.10;;
28070;SDS011;15383;48.408;9.968;2023-09-19T12:26:54;2.30;;;1.17;;
28070;SDS011;15383;48.408;9.968;2023-09-19T12:29:29;1.10;;;1.00;;
28070;SDS011;15383;48.408;9.968;2023-09-19T12:31:56;1.20;;;1.10;;
28070;SDS011;15383;48.408;9.968;2023-09-19T12:34:27;1.48;;;1.13;;
28070;SDS011;15383;48.408;9.968;2023-09-19T12:37:09;1.02;;;0.80;;
28070;SDS011;15383;48.408;9.968;2023-09-19T12:39:44;1.67;;;1.15;;
28070;SDS011;15383;48.408;9.968;2023-09-19T12:42:18;1.05;;;0.90;;
28070;SDS011;15383;48.408;9.968;2023-09-19T12:44:47;2.55;;;1.23;;
28070;SDS011;15383;48.408;9.968;2023-09-19T12:47:17;1.75;;;1.17;;
28070;SDS011;15383;48.408;9.968;2023-09-19T12:52:41;2.60;;;1.27;;
28070;SDS011;15383;48.408;9.968;2023-09-19T12:55:18;1.20;;;1.00;;
28070;SDS011;15383;48.408;9.968;2023-09-19T13:00:43;2.20;;;1.20;;
28070;SDS011;15383;48.408;9.968;2023-09-19T13:05:59;3.80;;;1.27;;
28070;SDS011;15383;48.408;9.968;2023-09-19T13:09:07;1.30;;;1.00;;
28070;SDS011;15383;48.408;9.968;2023-09-19T13:11:35;7.13;;;1.20;;
28070;SDS011;15383;48.408;9.968;2023-09-19T13:14:16;2.20;;;1.05;;
28070;SDS011;15383;48.408;9.968;2023-09-19T13:17:03;2.80;;;1.35;;
28070;SDS011;15383;48.408;9.968;2023-09-19T13:25:23;1.42;;;1.02;;
28070;SDS011;15383;48.408;9.968;2023-09-19T13:27:50;2.45;;;1.30;;
28070;SDS011;15383;48.408;9.968;2023-09-19T13:30:17;2.22;;;1.02;;
28070;SDS011;15383;48.408;9.968;2023-09-19T13:32:44;5.80;;;1.00;;
28070;SDS011;15383;48.408;9.968;2023-09-19T13:35:12;1.63;;;1.23;;
28070;SDS011;15383;48.408;9.968;2023-09-19T13:37:38;1.95;;;0.80;;
28070;SDS011;15383;48.408;9.968;2023-09-19T13:40:10;1.67;;;1.13;;
28070;SDS011;15383;48.408;9.968;2023-09-19T13:42:36;1.45;;;0.98;;
28070;SDS011;15383;48.408;9.968;2023-09-19T13:45:03;7.88;;;1.08;;
28070;SDS011;15383;48.408;9.968;2023-09-19T13:47:32;3.35;;;1.27;;
28070;SDS011;15383;48.408;9.968;2023-09-19T13:49:58;2.53;;;0.95;;
28070;SDS011;15383;48.408;9.968;2023-09-19T13:52:25;1.73;;;1.20;;
28070;SDS011;15383;48.408;9.968;2023-09-19T13:54:53;1.65;;;1.20;;
28070;SDS011;15383;48.408;9.968;2023-09-19T13:57:21;1.85;;;1.15;;
28070;SDS011;15383;48.408;9.968;2023-09-19T13:59:51;2.75;;;1.25;;
28070;SDS011;15383;48.408;9.968;2023-09-19T14:02:17;2.70;;;1.13;;
28070;SDS011;15383;48.408;9.968;2023-09-19T14:04:47;4.13;;;1.45;;
28070;SDS011;15383;48.408;9.968;2023-09-19T14:07:15;2.45;;;1.40;;
28070;SDS011;15383;48.408;9.968;2023-09-19T14:09:43;1.65;;;1.17;;
28070;SDS011;15383;48.408;9.968;2023-09-19T14:12:10;2.63;;;1.10;;
28070;SDS011;15383;48.408;9.968;2023-09-19T14:14:36;2.13;;;1.20;;
28070;SDS011;15383;48.408;9.968;2023-09-19T14:17:02;2.83;;;1.10;;
28070;SDS011;15383;48.408;9.968;2023-09-19T14:19:29;1.20;;;1.10;;
28070;SDS011;15383;48.408;9.968;2023-09-19T14:21:55;1.20;;;0.70;;
28070;SDS011;15383;48.408;9.968;2023-09-19T14:24:21;3.15;;;1.20;;
28070;SDS011;15383;48.408;9.968;2023-09-19T14:26:47;1.13;;;1.02;;
28070;SDS011;15383;48.408;9.968;2023-09-19T14:29:14;2.60;;;1.27;;
28070;SDS011;15383;48.408;9.968;2023-09-19T14:31:40;1.27;;;0.90;;
28070;SDS011;15383;48.408;9.968;2023-09-19T14:34:06;2.28;;;1.30;;
28070;SDS011;15383;48.408;9.968;2023-09-19T14:36:35;1.02;;;0.85;;
28070;SDS011;15383;48.408;9.968;2023-09-19T14:39:00;2.30;;;1.23;;
28070;SDS011;15383;48.408;9.968;2023-09-19T14:41:26;4.38;;;1.00;;
28070;SDS011;15383;48.408;9.968;2023-09-19T14:43:52;3.10;;;1.13;;
28070;SDS011;15383;48.408;9.968;2023-09-19T14:46:17;3.05;;;1.02;;
28070;SDS011;15383;48.408;9.968;2023-09-19T14:48:44;1.33;;;0.90;;
28070;SDS011;15383;48.408;9.968;2023-09-19T14:51:12;2.30;;;1.40;;
28070;SDS011;15383;48.408;9.968;2023-09-19T14:53:38;2.80;;;0.95;;
28070;SDS011;15383;48.408;9.968;2023-09-19T14:56:06;0.95;;;0.88;;
28070;SDS011;15383;48.408;9.968;2023-09-19T14:58:43;4.70;;;0.85;;
28070;SDS011;15383;48.408;9.968;2023-09-19T15:01:09;1.85;;;1.20;;
28070;SDS011;15383;48.408;9.968;2023-09-19T15:03:37;1.42;;;1.00;;
28070;SDS011;15383;48.408;9.968;2023-09-19T15:06:05;2.47;;;1.10;;
28070;SDS011;15383;48.408;9.968;2023-09-19T15:08:32;1.42;;;1.02;;
28070;SDS011;15383;48.408;9.968;2023-09-19T15:11:00;2.35;;;1.20;;
28070;SDS011;15383;48.408;9.968;2023-09-19T15:13:30;2.83;;;1.40;;
28070;SDS011;15383;48.408;9.968;2023-09-19T15:16:00;2.22;;;1.23;;
28070;SDS011;15383;48.408;9.968;2023-09-19T15:18:26;1.08;;;0.98;;
28070;SDS011;15383;48.408;9.968;2023-09-19T15:20:52;2.03;;;1.05;;
28070;SDS011;15383;48.408;9.968;2023-09-19T15:23:19;1.38;;;1.10;;
28070;SDS011;15383;48.408;9.968;2023-09-19T15:25:48;1.73;;;0.90;;
28070;SDS011;15383;48.408;9.968;2023-09-19T15:28:14;2.85;;;1.15;;
28070;SDS011;15383;48.408;9.968;2023-09-19T15:30:40;2.05;;;1.00;;
28070;SDS011;15383;48.408;9.968;2023-09-19T15:33:06;2.55;;;0.90;;
28070;SDS011;15383;48.408;9.968;2023-09-19T15:35:32;1.08;;;0.70;;
28070;SDS011;15383;48.408;9.968;2023-09-19T15:37:58;3.08;;;1.52;;
28070;SDS011;15383;48.408;9.968;2023-09-19T15:40:25;1.55;;;0.88;;
28070;SDS011;15383;48.408;9.968;2023-09-19T15:42:52;5.53;;;1.13;;
28070;SDS011;15383;48.408;9.968;2023-09-19T15:45:19;2.55;;;1.20;;
28070;SDS011;15383;48.408;9.968;2023-09-19T15:47:45;1.73;;;1.05;;
28070;SDS011;15383;48.408;9.968;2023-09-19T15:50:10;3.80;;;1.25;;
28070;SDS011;15383;48.408;9.968;2023-09-19T15:52:40;2.03;;;1.27;;
28070;SDS011;15383;48.408;9.968;2023-09-19T15:55:06;4.25;;;1.30;;
28070;SDS011;15383;48.408;9.968;2023-09-19T15:57:32;3.40;;;1.25;;
28070;SDS011;15383;48.408;9.968;2023-09-19T15:59:59;2.08;;;1.33;;
28070;SDS011;15383;48.408;9.968;2023-09-19T16:02:25;1.25;;;0.90;;
28070;SDS011;15383;48.408;9.968;2023-09-19T16:04:51;3.75;;;1.00;;
28070;SDS011;15383;48.408;9.968;2023-09-19T16:07:19;1.42;;;1.05;;
28070;SDS011;15383;48.408;9.968;2023-09-19T16:09:44;2.78;;;0.98;;
28070;SDS011;15383;48.408;9.968;2023-09-19T16:12:10;6.82;;;1.13;;
28070;SDS011;15383;48.408;9.968;2023-09-19T16:14:36;2.33;;;1.00;;
28070;SDS011;15383;48.408;9.968;2023-09-19T16:17:02;3.35;;;1.10;;
28070;SDS011;15383;48.408;9.968;2023-09-19T16:19:28;2.25;;;0.90;;
28070;SDS011;15383;48.408;9.968;2023-09-19T16:21:54;3.22;;;1.00;;
28070;SDS011;15383;48.408;9.968;2023-09-19T16:24:20;3.45;;;1.17;;
28070;SDS011;15383;48.408;9.968;2023-09-19T16:26:46;1.45;;;1.02;;
28070;SDS011;15383;48.408;9.968;2023-09-19T16:29:14;2.83;;;1.17;;
28070;SDS011;15383;48.408;9.968;2023-09-19T16:31:40;1.45;;;1.10;;
28070;SDS011;15383;48.408;9.968;2023-09-19T16:34:06;4.78;;;1.20;;
28070;SDS011;15383;48.408;9.968;2023-09-19T16:36:32;2.78;;;1.10;;
28070;SDS011;15383;48.408;9.968;2023-09-19T16:38:59;1.88;;;1.20;;
28070;SDS011;15383;48.408;9.968;2023-09-19T16:41:25;1.42;;;1.00;;
28070;SDS011;15383;48.408;9.968;2023-09-19T16:43:50;4.00;;;1.00;;
28070;SDS011;15383;48.408;9.968;2023-09-19T16:46:16;2.25;;;1.30;;
28070;SDS011;15383;48.408;9.968;2023-09-19T16:48:46;2.58;;;0.95;;
28070;SDS011;15383;48.408;9.968;2023-09-19T16:51:14;1.63;;;1.10;;
28070;SDS011;15383;48.408;9.968;2023-09-19T16:53:41;1.75;;;0.95;;
28070;SDS011;15383;48.408;9.968;2023-09-19T16:56:10;3.38;;;1.30;;
28070;SDS011;15383;48.408;9.968;2023-09-19T16:58:42;2.78;;;1.23;;
28070;SDS011;15383;48.408;9.968;2023-09-19T17:01:10;2.10;;;0.93;;
28070;SDS011;15383;48.408;9.968;2023-09-19T17:03:38;3.55;;;1.20;;
28070;SDS011;15383;48.408;9.968;2023-09-19T17:06:08;1.38;;;1.17;;
28070;SDS011;15383;48.408;9.968;2023-09-19T17:08:36;3.58;;;1.65;;
28070;SDS011;15383;48.408;9.968;2023-09-19T17:11:03;4.63;;;1.70;;
28070;SDS011;15383;48.408;9.968;2023-09-19T17:13:31;3.63;;;1.23;;
28070;SDS011;15383;48.408;9.968;2023-09-19T17:16:07;8.23;;;1.48;;
28070;SDS011;15383;48.408;9.968;2023-09-19T17:18:36;2.75;;;0.90;;
28070;SDS011;15383;48.408;9.968;2023-09-19T17:21:03;3.22;;;1.35;;
28070;SDS011;15383;48.408;9.968;2023-09-19T17:23:31;1.15;;;0.82;;
28070;SDS011;15383;48.408;9.968;2023-09-19T17:28:33;4.18;;;1.33;;
28070;SDS011;15383;48.408;9.968;2023-09-19T17:30:59;2.90;;;1.63;;
28070;SDS011;15383;48.408;9.968;2023-09-19T17:33:26;2.67;;;1.13;;
28070;SDS011;15383;48.408;9.968;2023-09-19T17:36:15;7.53;;;1.23;;
28070;SDS011;15383;48.408;9.968;2023-09-19T17:41:09;3.20;;;1.10;;
28070;SDS011;15383;48.408;9.968;2023-09-19T17:46:12;2.95;;;1.38;;
28070;SDS011;15383;48.408;9.968;2023-09-19T17:48:39;2.75;;;1.30;;
28070;SDS011;15383;48.408;9.968;2023-09-19T17:51:07;2.67;;;1.33;;
28070;SDS011;15383;48.408;9.968;2023-09-19T17:53:34;4.18;;;1.10;;
28070;SDS011;15383;48.408;9.968;2023-09-19T17:56:01;2.85;;;1.65;;
28070;SDS011;15383;48.408;9.968;2023-09-19T17:58:31;2.83;;;1.40;;
28070;SDS011;15383;48.408;9.968;2023-09-19T18:01:09;2.08;;;1.45;;
28070;SDS011;15383;48.408;9.968;2023-09-19T18:03:42;3.75;;;1.73;;
28070;SDS011;15383;48.408;9.968;2023-09-19T18:06:11;4.97;;;1.33;;
28070;SDS011;15383;48.408;9.968;2023-09-19T18:08:38;4.82;;;1.48;;
28070;SDS011;15383;48.408;9.968;2023-09-19T18:11:05;3.88;;;1.38;;
28070;SDS011;15383;48.408;9.968;2023-09-19T18:13:39;3.17;;;1.60;;
28070;SDS011;15383;48.408;9.968;2023-09-19T18:16:08;7.47;;;1.65;;
28070;SDS011;15383;48.408;9.968;2023-09-19T18:18:34;2.30;;;1.58;;
28070;SDS011;15383;48.408;9.968;2023-09-19T18:21:00;2.42;;;1.35;;
28070;SDS011;15383;48.408;9.968;2023-09-19T18:23:27;3.72;;;1.60;;
28070;SDS011;15383;48.408;9.968;2023-09-19T18:25:56;2.30;;;1.60;;
28070;SDS011;15383;48.408;9.968;2023-09-19T18:28:26;2.47;;;1.67;;
28070;SDS011;15383;48.408;9.968;2023-09-19T18:30:51;2.70;;;1.60;;
28070;SDS011;15383;48.408;9.968;2023-09-19T18:33:17;5.22;;;1.58;;
28070;SDS011;15383;48.408;9.968;2023-09-19T18:35:44;4.22;;;1.52;;
28070;SDS011;15383;48.408;9.968;2023-09-19T18:38:10;3.67;;;1.90;;
28070;SDS011;15383;48.408;9.968;2023-09-19T18:40:35;9.50;;;2.13;;
28070;SDS011;15383;48.408;9.968;2023-09-19T18:43:02;4.55;;;1.85;;
28070;SDS011;15383;48.408;9.968;2023-09-19T18:45:28;3.67;;;1.92;;
28070;SDS011;15383;48.408;9.968;2023-09-19T18:47:54;3.35;;;1.80;;
28070;SDS011;15383;48.408;9.968;2023-09-19T18:50:20;9.55;;;2.30;;
28070;SDS011;15383;48.408;9.968;2023-09-19T18:52:47;4.93;;;2.00;;